sensor_id;sensor_type;location;lat;lon;timestamp;temperature;humidity
11609;DHT22;5860;52.018;8.536;2023-04-12T00:00:15;8.20;99.90
11609;DHT22;5860;52.018;8.536;2023-04-12T00:02:43;8.20;99.90
11609;DHT22;5860;52.018;8.536;2023-04-12T00:05:10;8.20;99.90
11609;DHT22;5860;52.018;8.536;2023-04-12T00:07:38;8.30;99.90
11609;DHT22;5860;52.018;8.536;2023-04-12T00:10:06;8.40;99.90
11609;DHT22;5860;52.018;8.536;2023-04-12T00:12:33;8.40;99.90
11609;DHT22;5860;52.018;8.536;2023-04-12T00:15:00;8.50;99.90
11609;DHT22;5860;52.018;8.536;2023-04-12T00:17:28;8.50;99.90
11609;DHT22;5860;52.018;8.536;2023-04-12T00:19:54;8.50;99.90
11609;DHT22;5860;52.018;8.536;2023-04-12T00:22:22;8.50;99.90
11609;DHT22;5860;52.018;8.536;2023-04-12T00:24:48;8.50;99.90
11609;DHT22;5860;52.018;8.536;2023-04-12T00:27:15;8.50;99.90
11609;DHT22;5860;52.018;8.536;2023-04-12T00:29:43;8.60;99.90
11609;DHT22;5860;52.018;8.536;2023-04-12T00:32:10;8.60;99.90
11609;DHT22;5860;52.018;8.536;2023-04-12T00:34:37;8.60;99.90
11609;DHT22;5860;52.018;8.536;2023-04-12T00:37:04;8.60;99.90
11609;DHT22;5860;52.018;8.536;2023-04-12T00:39:31;8.70;99.90
11609;DHT22;5860;52.018;8.536;2023-04-12T00:42:04;8.80;99.90
11609;DHT22;5860;52.018;8.536;2023-04-12T00:44:34;8.80;99.90
11609;DHT22;5860;52.018;8.536;2023-04-12T00:47:03;8.80;99.90
11609;DHT22;5860;52.018;8.536;2023-04-12T00:49:34;8.80;99.90
11609;DHT22;5860;52.018;8.536;2023-04-12T00:52:04;8.80;99.90
11609;DHT22;5860;52.018;8.536;2023-04-12T00:54:33;8.90;99.90
11609;DHT22;5860;52.018;8.536;2023-04-12T00:57:00;8.80;99.90
11609;DHT22;5860;52.018;8.536;2023-04-12T00:59:28;8.90;99.90
11609;DHT22;5860;52.018;8.536;2023-04-12T01:01:56;8.90;99.90
11609;DHT22;5860;52.018;8.536;2023-04-12T01:04:23;8.80;99.90
11609;DHT22;5860;52.018;8.536;2023-04-12T01:07:01;8.90;99.90
11609;DHT22;5860;52.018;8.536;2023-04-12T01:14:57;8.80;99.90
11609;DHT22;5860;52.018;8.536;2023-04-12T01:17:29;8.80;99.90
11609;DHT22;5860;52.018;8.536;2023-04-12T01:20:10;8.80;99.90
11609;DHT22;5860;52.018;8.536;2023-04-12T01:28:15;8.80;99.90
11609;DHT22;5860;52.018;8.536;2023-04-12T01:30:47;8.80;99.90
11609;DHT22;5860;52.018;8.536;2023-04-12T01:33:16;8.80;99.90
11609;DHT22;5860;52.018;8.536;2023-04-12T01:35:45;8.80;99.90
11609;DHT22;5860;52.018;8.536;2023-04-12T01:38:14;8.90;99.90
11609;DHT22;5860;52.018;8.536;2023-04-12T01:40:41;8.90;99.90
11609;DHT22;5860;52.018;8.536;2023-04-12T01:43:10;8.80;99.90
11609;DHT22;5860;52.018;8.536;2023-04-12T01:45:38;8.90;99.90
11609;DHT22;5860;52.018;8.536;2023-04-12T01:48:07;8.90;99.90
11609;DHT22;5860;52.018;8.536;2023-04-12T01:50:53;8.90;99.90
11609;DHT22;5860;52.018;8.536;2023-04-12T01:53:32;8.90;99.90
11609;DHT22;5860;52.018;8.536;2023-04-12T01:56:06;8.80;99.90
11609;DHT22;5860;52.018;8.536;2023-04-12T01:58:33;8.90;99.90
11609;DHT22;5860;52.018;8.536;2023-04-12T02:01:01;8.90;99.90
11609;DHT22;5860;52.018;8.536;2023-04-12T02:03:29;8.80;99.90
11609;DHT22;5860;52.018;8.536;2023-04-12T02:05:58;8.70;99.90
11609;DHT22;5860;52.018;8.536;2023-04-12T02:08:25;8.70;99.90
11609;DHT22;5860;52.018;8.536;2023-04-12T02:10:52;8.70;99.90
11609;DHT22;5860;52.018;8.536;2023-04-12T02:13:20;8.60;99.90
11609;DHT22;5860;52.018;8.536;2023-04-12T02:15:47;8.70;99.90
11609;DHT22;5860;52.018;8.536;2023-04-12T02:18:15;8.60;99.90
11609;DHT22;5860;52.018;8.536;2023-04-12T02:20:43;8.70;99.90
11609;DHT22;5860;52.018;8.536;2023-04-12T02:23:10;8.70;99.90
11609;DHT22;5860;52.018;8.536;2023-04-12T02:25:37;8.70;99.90
11609;DHT22;5860;52.018;8.536;2023-04-12T02:28:05;8.60;99.90
11609;DHT22;5860;52.018;8.536;2023-04-12T02:30:32;8.70;99.90
11609;DHT22;5860;52.018;8.536;2023-04-12T02:32:59;8.70;99.90
11609;DHT22;5860;52.018;8.536;2023-04-12T02:35:26;8.80;99.90
11609;DHT22;5860;52.018;8.536;2023-04-12T02:37:53;8.80;99.90
11609;DHT22;5860;52.018;8.536;2023-04-12T02:40:20;8.70;99.90
11609;DHT22;5860;52.018;8.536;2023-04-12T02:42:47;8.60;99.90
11609;DHT22;5860;52.018;8.536;2023-04-12T02:45:14;8.70;99.90
11609;DHT22;5860;52.018;8.536;2023-04-12T02:47:41;8.70;99.90
11609;DHT22;5860;52.018;8.536;2023-04-12T02:50:08;8.60;99.90
11609;DHT22;5860;52.018;8.536;2023-04-12T02:52:35;8.60;99.90
11609;DHT22;5860;52.018;8.536;2023-04-12T02:55:04;8.50;99.90
11609;DHT22;5860;52.018;8.536;2023-04-12T02:57:31;8.50;99.90
11609;DHT22;5860;52.018;8.536;2023-04-12T02:59:58;8.50;99.90
11609;DHT22;5860;52.018;8.536;2023-04-12T03:02:25;8.40;99.90
11609;DHT22;5860;52.018;8.536;2023-04-12T03:04:52;8.40;99.90
11609;DHT22;5860;52.018;8.536;2023-04-12T03:07:21;8.30;99.90
11609;DHT22;5860;52.018;8.536;2023-04-12T03:09:49;8.30;99.90
11609;DHT22;5860;52.018;8.536;2023-04-12T03:12:16;8.20;99.90
11609;DHT22;5860;52.018;8.536;2023-04-12T03:14:43;8.20;99.90
11609;DHT22;5860;52.018;8.536;2023-04-12T03:17:10;8.20;99.90
11609;DHT22;5860;52.018;8.536;2023-04-12T03:19:37;8.10;99.90
11609;DHT22;5860;52.018;8.536;2023-04-12T03:24:32;8.00;99.90
11609;DHT22;5860;52.018;8.536;2023-04-12T03:27:01;8.00;99.90
11609;DHT22;5860;52.018;8.536;2023-04-12T03:29:29;8.00;99.90
11609;DHT22;5860;52.018;8.536;2023-04-12T03:31:57;8.00;99.90
11609;DHT22;5860;52.018;8.536;2023-04-12T03:34:26;8.00;99.90
11609;DHT22;5860;52.018;8.536;2023-04-12T03:36:59;7.90;99.90
11609;DHT22;5860;52.018;8.536;2023-04-12T03:39:27;7.80;99.90
11609;DHT22;5860;52.018;8.536;2023-04-12T03:41:54;7.60;99.90
11609;DHT22;5860;52.018;8.536;2023-04-12T03:44:21;7.60;99.90
11609;DHT22;5860;52.018;8.536;2023-04-12T03:46:51;7.60;99.90
11609;DHT22;5860;52.018;8.536;2023-04-12T03:49:18;7.50;99.90
11609;DHT22;5860;52.018;8.536;2023-04-12T03:51:45;7.50;99.90
11609;DHT22;5860;52.018;8.536;2023-04-12T03:54:12;7.50;99.90
11609;DHT22;5860;52.018;8.536;2023-04-12T03:56:39;7.50;99.90
11609;DHT22;5860;52.018;8.536;2023-04-12T03:59:07;7.50;99.90
11609;DHT22;5860;52.018;8.536;2023-04-12T04:01:34;7.40;99.90
11609;DHT22;5860;52.018;8.536;2023-04-12T04:04:02;7.40;99.90
11609;DHT22;5860;52.018;8.536;2023-04-12T04:06:30;7.40;99.90
11609;DHT22;5860;52.018;8.536;2023-04-12T04:08:57;7.40;99.90
11609;DHT22;5860;52.018;8.536;2023-04-12T04:11:24;7.50;99.90
11609;DHT22;5860;52.018;8.536;2023-04-12T04:13:51;7.50;99.90
11609;DHT22;5860;52.018;8.536;2023-04-12T04:16:18;7.50;99.90
11609;DHT22;5860;52.018;8.536;2023-04-12T04:18:45;7.50;99.90
11609;DHT22;5860;52.018;8.536;2023-04-12T04:21:12;7.50;99.90
11609;DHT22;5860;52.018;8.536;2023-04-12T04:23:40;7.50;99.90
11609;DHT22;5860;52.018;8.536;2023-04-12T04:26:10;7.50;99.90
11609;DHT22;5860;52.018;8.536;2023-04-12T04:28:38;7.60;99.90
11609;DHT22;5860;52.018;8.536;2023-04-12T04:31:07;7.60;99.90
11609;DHT22;5860;52.018;8.536;2023-04-12T04:33:36;7.60;99.90
11609;DHT22;5860;52.018;8.536;2023-04-12T04:36:05;7.60;99.90
11609;DHT22;5860;52.018;8.536;2023-04-12T04:38:34;7.60;99.90
11609;DHT22;5860;52.018;8.536;2023-04-12T04:41:01;7.70;99.90
11609;DHT22;5860;52.018;8.536;2023-04-12T04:43:29;7.70;99.90
11609;DHT22;5860;52.018;8.536;2023-04-12T04:45:56;7.80;99.90
11609;DHT22;5860;52.018;8.536;2023-04-12T04:48:23;7.70;99.90
11609;DHT22;5860;52.018;8.536;2023-04-12T04:50:50;7.80;99.90
11609;DHT22;5860;52.018;8.536;2023-04-12T04:53:20;7.70;99.90
11609;DHT22;5860;52.018;8.536;2023-04-12T04:55:47;7.80;99.90
11609;DHT22;5860;52.018;8.536;2023-04-12T04:58:14;7.80;99.90
11609;DHT22;5860;52.018;8.536;2023-04-12T05:00:42;7.80;99.90
11609;DHT22;5860;52.018;8.536;2023-04-12T05:03:11;7.80;99.90
11609;DHT22;5860;52.018;8.536;2023-04-12T05:05:39;7.80;99.90
11609;DHT22;5860;52.018;8.536;2023-04-12T05:08:06;7.90;99.90
11609;DHT22;5860;52.018;8.536;2023-04-12T05:10:33;7.90;99.90
11609;DHT22;5860;52.018;8.536;2023-04-12T05:13:00;7.90;99.90
11609;DHT22;5860;52.018;8.536;2023-04-12T05:15:28;7.90;99.90
11609;DHT22;5860;52.018;8.536;2023-04-12T05:17:55;8.00;99.90
11609;DHT22;5860;52.018;8.536;2023-04-12T05:20:22;8.00;99.90
11609;DHT22;5860;52.018;8.536;2023-04-12T05:22:49;7.90;99.90
11609;DHT22;5860;52.018;8.536;2023-04-12T05:25:17;8.00;99.90
11609;DHT22;5860;52.018;8.536;2023-04-12T05:27:46;8.00;99.90
11609;DHT22;5860;52.018;8.536;2023-04-12T05:30:15;8.10;99.90
11609;DHT22;5860;52.018;8.536;2023-04-12T05:32:42;8.20;99.90
11609;DHT22;5860;52.018;8.536;2023-04-12T05:35:09;8.20;99.90
11609;DHT22;5860;52.018;8.536;2023-04-12T05:37:36;8.20;99.90
11609;DHT22;5860;52.018;8.536;2023-04-12T05:40:04;8.30;99.90
11609;DHT22;5860;52.018;8.536;2023-04-12T05:42:35;8.20;99.90
11609;DHT22;5860;52.018;8.536;2023-04-12T05:45:03;8.20;99.90
11609;DHT22;5860;52.018;8.536;2023-04-12T05:47:31;8.30;99.90
11609;DHT22;5860;52.018;8.536;2023-04-12T05:49:58;8.20;99.90
11609;DHT22;5860;52.018;8.536;2023-04-12T05:52:25;8.30;99.90
11609;DHT22;5860;52.018;8.536;2023-04-12T05:54:52;8.30;99.90
11609;DHT22;5860;52.018;8.536;2023-04-12T05:57:21;8.40;99.90
11609;DHT22;5860;52.018;8.536;2023-04-12T05:59:48;8.40;99.90
11609;DHT22;5860;52.018;8.536;2023-04-12T06:02:15;8.30;99.90
11609;DHT22;5860;52.018;8.536;2023-04-12T06:04:43;8.30;99.90
11609;DHT22;5860;52.018;8.536;2023-04-12T06:07:17;8.40;99.90
11609;DHT22;5860;52.018;8.536;2023-04-12T06:09:45;8.50;99.90
11609;DHT22;5860;52.018;8.536;2023-04-12T06:12:12;8.50;99.90
11609;DHT22;5860;52.018;8.536;2023-04-12T06:14:39;8.60;99.90
11609;DHT22;5860;52.018;8.536;2023-04-12T06:17:06;8.70;99.90
11609;DHT22;5860;52.018;8.536;2023-04-12T06:19:33;8.70;99.90
11609;DHT22;5860;52.018;8.536;2023-04-12T06:22:01;8.50;99.90
11609;DHT22;5860;52.018;8.536;2023-04-12T06:24:28;8.50;99.90
11609;DHT22;5860;52.018;8.536;2023-04-12T06:26:55;8.50;99.90
11609;DHT22;5860;52.018;8.536;2023-04-12T06:29:21;8.50;99.90
11609;DHT22;5860;52.018;8.536;2023-04-12T06:31:48;8.50;99.90
11609;DHT22;5860;52.018;8.536;2023-04-12T06:34:15;8.50;99.90
11609;DHT22;5860;52.018;8.536;2023-04-12T06:36:43;8.70;99.90
11609;DHT22;5860;52.018;8.536;2023-04-12T06:39:11;8.70;99.90
11609;DHT22;5860;52.018;8.536;2023-04-12T06:41:39;8.90;99.90
11609;DHT22;5860;52.018;8.536;2023-04-12T06:44:06;9.00;99.90
11609;DHT22;5860;52.018;8.536;2023-04-12T06:46:33;8.70;99.90
11609;DHT22;5860;52.018;8.536;2023-04-12T06:49:00;8.80;99.90
11609;DHT22;5860;52.018;8.536;2023-04-12T06:51:27;9.00;99.90
11609;DHT22;5860;52.018;8.536;2023-04-12T06:53:54;8.90;99.90
11609;DHT22;5860;52.018;8.536;2023-04-12T06:56:22;8.90;99.90
11609;DHT22;5860;52.018;8.536;2023-04-12T06:58:48;8.80;99.90
11609;DHT22;5860;52.018;8.536;2023-04-12T07:01:15;8.50;99.90
11609;DHT22;5860;52.018;8.536;2023-04-12T07:03:43;8.50;99.90
11609;DHT22;5860;52.018;8.536;2023-04-12T07:06:10;8.60;99.90
11609;DHT22;5860;52.018;8.536;2023-04-12T07:08:50;8.50;99.90
11609;DHT22;5860;52.018;8.536;2023-04-12T07:11:20;8.60;99.90
11609;DHT22;5860;52.018;8.536;2023-04-12T07:13:49;8.50;99.90
11609;DHT22;5860;52.018;8.536;2023-04-12T07:16:17;8.40;99.90
11609;DHT22;5860;52.018;8.536;2023-04-12T07:18:44;8.40;99.90
11609;DHT22;5860;52.018;8.536;2023-04-12T07:21:11;8.50;99.90
11609;DHT22;5860;52.018;8.536;2023-04-12T07:23:43;8.50;99.90
11609;DHT22;5860;52.018;8.536;2023-04-12T07:26:10;8.50;99.90
11609;DHT22;5860;52.018;8.536;2023-04-12T07:28:37;8.40;99.90
11609;DHT22;5860;52.018;8.536;2023-04-12T07:31:05;8.40;99.90
11609;DHT22;5860;52.018;8.536;2023-04-12T07:33:33;8.40;99.90
11609;DHT22;5860;52.018;8.536;2023-04-12T07:36:02;8.40;99.90
11609;DHT22;5860;52.018;8.536;2023-04-12T07:38:30;8.30;99.90
11609;DHT22;5860;52.018;8.536;2023-04-12T07:40:57;8.30;99.90
11609;DHT22;5860;52.018;8.536;2023-04-12T07:43:24;8.20;99.90
11609;DHT22;5860;52.018;8.536;2023-04-12T07:45:53;8.20;99.90
11609;DHT22;5860;52.018;8.536;2023-04-12T07:48:20;8.40;99.90
11609;DHT22;5860;52.018;8.536;2023-04-12T07:50:47;8.20;99.90
11609;DHT22;5860;52.018;8.536;2023-04-12T07:53:32;8.30;99.90
11609;DHT22;5860;52.018;8.536;2023-04-12T07:55:59;8.20;99.90
11609;DHT22;5860;52.018;8.536;2023-04-12T07:58:26;8.20;99.90
11609;DHT22;5860;52.018;8.536;2023-04-12T08:00:53;8.30;99.90
11609;DHT22;5860;52.018;8.536;2023-04-12T08:03:20;8.30;99.90
11609;DHT22;5860;52.018;8.536;2023-04-12T08:05:47;8.20;99.90
11609;DHT22;5860;52.018;8.536;2023-04-12T08:08:19;8.20;99.90
11609;DHT22;5860;52.018;8.536;2023-04-12T08:10:48;8.10;99.90
11609;DHT22;5860;52.018;8.536;2023-04-12T08:13:15;8.10;99.90
11609;DHT22;5860;52.018;8.536;2023-04-12T08:15:44;8.20;99.90
11609;DHT22;5860;52.018;8.536;2023-04-12T08:18:14;8.30;99.90
11609;DHT22;5860;52.018;8.536;2023-04-12T08:20:41;8.40;99.90
11609;DHT22;5860;52.018;8.536;2023-04-12T08:23:10;8.50;99.90
11609;DHT22;5860;52.018;8.536;2023-04-12T08:25:38;8.50;99.90
11609;DHT22;5860;52.018;8.536;2023-04-12T08:28:05;8.60;99.90
11609;DHT22;5860;52.018;8.536;2023-04-12T08:30:34;8.60;99.90
11609;DHT22;5860;52.018;8.536;2023-04-12T08:33:02;8.70;99.90
11609;DHT22;5860;52.018;8.536;2023-04-12T08:35:29;8.80;99.90
11609;DHT22;5860;52.018;8.536;2023-04-12T08:37:57;8.60;99.90
11609;DHT22;5860;52.018;8.536;2023-04-12T08:40:26;8.50;99.90
11609;DHT22;5860;52.018;8.536;2023-04-12T08:42:53;8.60;99.90
11609;DHT22;5860;52.018;8.536;2023-04-12T08:45:24;8.70;99.90
11609;DHT22;5860;52.018;8.536;2023-04-12T08:47:55;8.60;99.90
11609;DHT22;5860;52.018;8.536;2023-04-12T08:50:22;8.60;99.90
11609;DHT22;5860;52.018;8.536;2023-04-12T08:52:50;8.60;99.90
11609;DHT22;5860;52.018;8.536;2023-04-12T08:55:18;8.60;99.90
11609;DHT22;5860;52.018;8.536;2023-04-12T08:57:45;8.50;99.90
11609;DHT22;5860;52.018;8.536;2023-04-12T09:00:14;8.50;99.90
11609;DHT22;5860;52.018;8.536;2023-04-12T09:02:41;8.50;99.90
11609;DHT22;5860;52.018;8.536;2023-04-12T09:05:13;8.80;99.90
11609;DHT22;5860;52.018;8.536;2023-04-12T09:07:41;9.00;99.90
11609;DHT22;5860;52.018;8.536;2023-04-12T09:10:08;9.10;99.90
11609;DHT22;5860;52.018;8.536;2023-04-12T09:12:44;9.10;99.90
11609;DHT22;5860;52.018;8.536;2023-04-12T09:15:14;9.50;99.90
11609;DHT22;5860;52.018;8.536;2023-04-12T09:17:43;9.90;99.90
11609;DHT22;5860;52.018;8.536;2023-04-12T09:22:43;9.90;99.90
11609;DHT22;5860;52.018;8.536;2023-04-12T09:25:13;9.90;99.90
11609;DHT22;5860;52.018;8.536;2023-04-12T09:27:54;10.30;99.90
11609;DHT22;5860;52.018;8.536;2023-04-12T09:30:24;10.10;99.90
11609;DHT22;5860;52.018;8.536;2023-04-12T09:32:52;10.10;99.90
11609;DHT22;5860;52.018;8.536;2023-04-12T09:35:40;10.10;99.90
11609;DHT22;5860;52.018;8.536;2023-04-12T09:38:09;9.90;99.90
11609;DHT22;5860;52.018;8.536;2023-04-12T09:40:37;10.00;99.90
11609;DHT22;5860;52.018;8.536;2023-04-12T09:43:05;10.10;99.90
11609;DHT22;5860;52.018;8.536;2023-04-12T09:45:34;9.90;99.90
11609;DHT22;5860;52.018;8.536;2023-04-12T09:48:03;10.10;99.90
11609;DHT22;5860;52.018;8.536;2023-04-12T09:50:31;10.20;99.90
11609;DHT22;5860;52.018;8.536;2023-04-12T09:53:02;10.60;99.90
11609;DHT22;5860;52.018;8.536;2023-04-12T09:55:30;10.80;99.90
11609;DHT22;5860;52.018;8.536;2023-04-12T09:58:01;10.40;99.90
11609;DHT22;5860;52.018;8.536;2023-04-12T10:00:30;10.30;99.90
11609;DHT22;5860;52.018;8.536;2023-04-12T10:03:00;10.00;99.90
11609;DHT22;5860;52.018;8.536;2023-04-12T10:05:28;10.30;99.90
11609;DHT22;5860;52.018;8.536;2023-04-12T10:07:55;10.40;99.90
11609;DHT22;5860;52.018;8.536;2023-04-12T10:10:23;10.80;99.90
11609;DHT22;5860;52.018;8.536;2023-04-12T10:12:50;11.00;99.90
11609;DHT22;5860;52.018;8.536;2023-04-12T10:15:17;10.80;99.90
11609;DHT22;5860;52.018;8.536;2023-04-12T10:17:51;10.70;99.90
11609;DHT22;5860;52.018;8.536;2023-04-12T10:20:20;10.80;99.90
11609;DHT22;5860;52.018;8.536;2023-04-12T10:22:51;10.30;99.90
11609;DHT22;5860;52.018;8.536;2023-04-12T10:25:20;10.10;99.90
11609;DHT22;5860;52.018;8.536;2023-04-12T10:27:48;10.00;99.90
11609;DHT22;5860;52.018;8.536;2023-04-12T10:30:28;10.00;99.90
11609;DHT22;5860;52.018;8.536;2023-04-12T10:35:31;10.00;99.90
11609;DHT22;5860;52.018;8.536;2023-04-12T10:38:15;9.90;99.90
11609;DHT22;5860;52.018;8.536;2023-04-12T10:43:35;10.20;99.90
11609;DHT22;5860;52.018;8.536;2023-04-12T10:46:02;10.20;99.90
11609;DHT22;5860;52.018;8.536;2023-04-12T10:48:33;10.00;99.90
11609;DHT22;5860;52.018;8.536;2023-04-12T10:51:22;10.30;99.90
11609;DHT22;5860;52.018;8.536;2023-04-12T10:56:39;10.00;99.90
11609;DHT22;5860;52.018;8.536;2023-04-12T10:59:10;10.20;99.90
11609;DHT22;5860;52.018;8.536;2023-04-12T11:01:38;10.20;99.90
11609;DHT22;5860;52.018;8.536;2023-04-12T11:06:59;10.30;99.90
11609;DHT22;5860;52.018;8.536;2023-04-12T11:19:39;10.40;99.90
11609;DHT22;5860;52.018;8.536;2023-04-12T11:22:17;10.20;99.90
11609;DHT22;5860;52.018;8.536;2023-04-12T11:24:56;10.20;99.90
11609;DHT22;5860;52.018;8.536;2023-04-12T11:27:25;10.40;99.90
11609;DHT22;5860;52.018;8.536;2023-04-12T11:29:55;11.20;99.90
11609;DHT22;5860;52.018;8.536;2023-04-12T11:32:27;11.00;99.90
11609;DHT22;5860;52.018;8.536;2023-04-12T11:34:55;10.80;99.90
11609;DHT22;5860;52.018;8.536;2023-04-12T11:37:23;11.00;99.90
11609;DHT22;5860;52.018;8.536;2023-04-12T11:39:55;11.00;99.90
11609;DHT22;5860;52.018;8.536;2023-04-12T11:42:24;11.10;99.90
11609;DHT22;5860;52.018;8.536;2023-04-12T11:44:51;11.40;99.90
11609;DHT22;5860;52.018;8.536;2023-04-12T11:47:26;11.40;99.90
11609;DHT22;5860;52.018;8.536;2023-04-12T11:49:57;11.40;99.90
11609;DHT22;5860;52.018;8.536;2023-04-12T11:52:30;11.60;99.90
11609;DHT22;5860;52.018;8.536;2023-04-12T11:55:02;11.70;99.90
11609;DHT22;5860;52.018;8.536;2023-04-12T11:57:35;11.70;99.90
11609;DHT22;5860;52.018;8.536;2023-04-12T12:00:05;11.40;99.90
11609;DHT22;5860;52.018;8.536;2023-04-12T12:02:33;11.60;99.90
11609;DHT22;5860;52.018;8.536;2023-04-12T12:05:15;11.80;99.90
11609;DHT22;5860;52.018;8.536;2023-04-12T12:07:42;11.50;99.90
11609;DHT22;5860;52.018;8.536;2023-04-12T12:10:10;11.30;99.90
11609;DHT22;5860;52.018;8.536;2023-04-12T12:12:46;11.40;99.90
11609;DHT22;5860;52.018;8.536;2023-04-12T12:15:14;11.30;99.90
11609;DHT22;5860;52.018;8.536;2023-04-12T12:17:41;11.20;99.90
11609;DHT22;5860;52.018;8.536;2023-04-12T12:20:18;10.90;99.90
11609;DHT22;5860;52.018;8.536;2023-04-12T12:22:46;10.90;99.90
11609;DHT22;5860;52.018;8.536;2023-04-12T12:25:13;10.80;99.90
11609;DHT22;5860;52.018;8.536;2023-04-12T12:27:40;10.80;99.90
11609;DHT22;5860;52.018;8.536;2023-04-12T12:30:10;10.70;99.90
11609;DHT22;5860;52.018;8.536;2023-04-12T12:32:38;10.70;99.90
11609;DHT22;5860;52.018;8.536;2023-04-12T12:35:10;10.90;99.90
11609;DHT22;5860;52.018;8.536;2023-04-12T12:37:50;11.10;99.90
11609;DHT22;5860;52.018;8.536;2023-04-12T12:40:29;11.50;99.90
11609;DHT22;5860;52.018;8.536;2023-04-12T12:42:59;11.30;99.90
11609;DHT22;5860;52.018;8.536;2023-04-12T12:45:27;11.40;99.90
11609;DHT22;5860;52.018;8.536;2023-04-12T12:48:01;11.30;99.90
11609;DHT22;5860;52.018;8.536;2023-04-12T12:50:31;11.40;99.90
11609;DHT22;5860;52.018;8.536;2023-04-12T12:52:59;11.20;99.90
11609;DHT22;5860;52.018;8.536;2023-04-12T12:55:28;11.30;99.90
11609;DHT22;5860;52.018;8.536;2023-04-12T12:57:56;11.20;99.90
11609;DHT22;5860;52.018;8.536;2023-04-12T13:00:27;11.00;99.90
11609;DHT22;5860;52.018;8.536;2023-04-12T13:02:57;10.90;99.90
11609;DHT22;5860;52.018;8.536;2023-04-12T13:05:25;10.90;99.90
11609;DHT22;5860;52.018;8.536;2023-04-12T13:07:52;11.00;99.90
11609;DHT22;5860;52.018;8.536;2023-04-12T13:10:20;10.90;99.90
11609;DHT22;5860;52.018;8.536;2023-04-12T13:12:47;10.90;99.90
11609;DHT22;5860;52.018;8.536;2023-04-12T13:15:14;10.80;99.90
11609;DHT22;5860;52.018;8.536;2023-04-12T13:17:44;10.70;99.90
11609;DHT22;5860;52.018;8.536;2023-04-12T13:20:11;10.80;99.90
11609;DHT22;5860;52.018;8.536;2023-04-12T13:22:39;10.80;99.90
11609;DHT22;5860;52.018;8.536;2023-04-12T13:25:06;10.80;99.90
11609;DHT22;5860;52.018;8.536;2023-04-12T13:27:33;10.80;99.90
11609;DHT22;5860;52.018;8.536;2023-04-12T13:30:01;10.90;99.90
11609;DHT22;5860;52.018;8.536;2023-04-12T13:32:28;10.90;99.90
11609;DHT22;5860;52.018;8.536;2023-04-12T13:34:55;10.80;99.90
11609;DHT22;5860;52.018;8.536;2023-04-12T13:37:22;10.80;99.90
11609;DHT22;5860;52.018;8.536;2023-04-12T13:39:50;10.80;99.90
11609;DHT22;5860;52.018;8.536;2023-04-12T13:42:18;10.70;99.90
11609;DHT22;5860;52.018;8.536;2023-04-12T13:44:45;10.70;99.90
11609;DHT22;5860;52.018;8.536;2023-04-12T13:47:15;10.90;99.90
11609;DHT22;5860;52.018;8.536;2023-04-12T13:49:44;11.00;99.90
11609;DHT22;5860;52.018;8.536;2023-04-12T13:52:11;11.00;99.90
11609;DHT22;5860;52.018;8.536;2023-04-12T13:54:39;11.10;99.90
11609;DHT22;5860;52.018;8.536;2023-04-12T13:57:06;11.20;99.90
11609;DHT22;5860;52.018;8.536;2023-04-12T13:59:36;11.40;99.90
11609;DHT22;5860;52.018;8.536;2023-04-12T14:02:03;11.30;99.90
11609;DHT22;5860;52.018;8.536;2023-04-12T14:04:31;11.30;99.90
11609;DHT22;5860;52.018;8.536;2023-04-12T14:06:59;11.20;99.90
11609;DHT22;5860;52.018;8.536;2023-04-12T14:09:29;11.20;99.90
11609;DHT22;5860;52.018;8.536;2023-04-12T14:11:58;11.30;99.90
11609;DHT22;5860;52.018;8.536;2023-04-12T14:14:32;11.30;99.90
11609;DHT22;5860;52.018;8.536;2023-04-12T14:16:59;11.10;99.90
11609;DHT22;5860;52.018;8.536;2023-04-12T14:19:27;11.40;99.90
11609;DHT22;5860;52.018;8.536;2023-04-12T14:21:54;11.40;99.90
11609;DHT22;5860;52.018;8.536;2023-04-12T14:24:22;11.50;99.90
11609;DHT22;5860;52.018;8.536;2023-04-12T14:26:48;11.60;99.90
11609;DHT22;5860;52.018;8.536;2023-04-12T14:29:16;11.60;99.90
11609;DHT22;5860;52.018;8.536;2023-04-12T14:31:43;12.00;99.90
11609;DHT22;5860;52.018;8.536;2023-04-12T14:34:10;12.30;99.90
11609;DHT22;5860;52.018;8.536;2023-04-12T14:36:38;12.40;99.90
11609;DHT22;5860;52.018;8.536;2023-04-12T14:39:06;12.30;99.90
11609;DHT22;5860;52.018;8.536;2023-04-12T14:41:38;12.30;99.90
11609;DHT22;5860;52.018;8.536;2023-04-12T14:44:05;12.10;99.90
11609;DHT22;5860;52.018;8.536;2023-04-12T14:46:32;12.00;99.90
11609;DHT22;5860;52.018;8.536;2023-04-12T14:48:59;12.10;99.90
11609;DHT22;5860;52.018;8.536;2023-04-12T14:51:28;12.30;99.90
11609;DHT22;5860;52.018;8.536;2023-04-12T14:53:55;12.30;99.90
11609;DHT22;5860;52.018;8.536;2023-04-12T14:56:25;12.10;99.90
11609;DHT22;5860;52.018;8.536;2023-04-12T14:58:56;12.10;99.90
11609;DHT22;5860;52.018;8.536;2023-04-12T15:01:24;12.20;99.90
11609;DHT22;5860;52.018;8.536;2023-04-12T15:03:52;12.30;99.90
11609;DHT22;5860;52.018;8.536;2023-04-12T15:06:22;12.20;99.90
11609;DHT22;5860;52.018;8.536;2023-04-12T15:08:52;12.20;99.90
11609;DHT22;5860;52.018;8.536;2023-04-12T15:11:23;12.40;99.90
11609;DHT22;5860;52.018;8.536;2023-04-12T15:13:53;12.50;99.90
11609;DHT22;5860;52.018;8.536;2023-04-12T15:16:21;12.50;99.90
11609;DHT22;5860;52.018;8.536;2023-04-12T15:18:49;12.50;99.90
11609;DHT22;5860;52.018;8.536;2023-04-12T15:21:17;12.40;99.90
11609;DHT22;5860;52.018;8.536;2023-04-12T15:23:44;12.40;99.90
11609;DHT22;5860;52.018;8.536;2023-04-12T15:26:11;12.20;99.90
11609;DHT22;5860;52.018;8.536;2023-04-12T15:28:40;12.30;99.90
11609;DHT22;5860;52.018;8.536;2023-04-12T15:31:07;12.10;99.90
11609;DHT22;5860;52.018;8.536;2023-04-12T15:33:35;12.20;99.90
11609;DHT22;5860;52.018;8.536;2023-04-12T15:36:04;12.00;99.90
11609;DHT22;5860;52.018;8.536;2023-04-12T15:38:31;12.30;99.90
11609;DHT22;5860;52.018;8.536;2023-04-12T15:40:59;12.60;99.90
11609;DHT22;5860;52.018;8.536;2023-04-12T15:43:27;12.40;99.90
11609;DHT22;5860;52.018;8.536;2023-04-12T15:45:54;12.40;99.90
11609;DHT22;5860;52.018;8.536;2023-04-12T15:48:23;12.50;99.90
11609;DHT22;5860;52.018;8.536;2023-04-12T15:50:51;12.30;99.90
11609;DHT22;5860;52.018;8.536;2023-04-12T15:53:21;12.30;99.90
11609;DHT22;5860;52.018;8.536;2023-04-12T15:55:49;12.30;99.90
11609;DHT22;5860;52.018;8.536;2023-04-12T15:58:23;12.20;99.90
11609;DHT22;5860;52.018;8.536;2023-04-12T16:00:50;12.20;99.90
11609;DHT22;5860;52.018;8.536;2023-04-12T16:03:20;12.10;99.90
11609;DHT22;5860;52.018;8.536;2023-04-12T16:05:49;12.00;99.90
11609;DHT22;5860;52.018;8.536;2023-04-12T16:08:20;12.10;99.90
11609;DHT22;5860;52.018;8.536;2023-04-12T16:10:48;12.00;99.90
11609;DHT22;5860;52.018;8.536;2023-04-12T16:13:15;12.00;99.90
11609;DHT22;5860;52.018;8.536;2023-04-12T16:15:42;11.90;99.90
11609;DHT22;5860;52.018;8.536;2023-04-12T16:18:10;11.90;99.90
11609;DHT22;5860;52.018;8.536;2023-04-12T16:20:37;11.90;99.90
11609;DHT22;5860;52.018;8.536;2023-04-12T16:23:07;11.70;99.90
11609;DHT22;5860;52.018;8.536;2023-04-12T16:25:34;11.70;99.90
11609;DHT22;5860;52.018;8.536;2023-04-12T16:28:02;11.70;99.90
11609;DHT22;5860;52.018;8.536;2023-04-12T16:30:30;11.70;99.90
11609;DHT22;5860;52.018;8.536;2023-04-12T16:32:57;11.70;99.90
11609;DHT22;5860;52.018;8.536;2023-04-12T16:35:24;11.10;99.90
11609;DHT22;5860;52.018;8.536;2023-04-12T16:37:52;10.40;99.90
11609;DHT22;5860;52.018;8.536;2023-04-12T16:40:20;9.80;99.90